Time;durP1;ratioP1;P1;durP2;ratioP2;P2;SDS_P1;SDS_P2;PMS_P1;PMS_P2;Temp;Humidity;BMP_temperature;BMP_pressure;BME280_temperature;BME280_humidity;BME280_pressure;Samples;Min_cycle;Max_cycle;Signal;HPM_P1;HPM_P2
2023/06/22 00:01:01;;;;;;;14.70;13.27;;;;;;;19.85;85.17;95437.22;5046466;28;20215;-62
2023/06/22 00:03:28;;;;;;;16.23;14.25;;;;;;;19.86;85.40;95436.28;5048915;28;20218;-63
2023/06/22 00:05:54;;;;;;;16.50;14.27;;;;;;;19.82;85.43;95434.84;5047362;28;21218;-63
2023/06/22 00:08:21;;;;;;;16.52;13.40;;;;;;;19.78;85.89;95441.13;5048136;28;20211;-63
2023/06/22 00:10:48;;;;;;;13.80;12.20;;;;;;;19.73;86.00;95438.00;5048119;28;20206;-62
2023/06/22 00:13:17;;;;;;;14.93;13.50;;;;;;;19.66;86.58;95438.41;5047892;28;20195;-63
2023/06/22 00:15:43;;;;;;;20.25;15.23;;;;;;;19.62;87.07;95434.34;5047650;28;20294;-63
2023/06/22 00:18:11;;;;;;;17.17;15.30;;;;;;;19.60;86.96;95436.19;5048056;28;20253;-62
2023/06/22 00:20:38;;;;;;;16.90;15.30;;;;;;;19.52;87.65;95437.63;5046130;28;20700;-62
2023/06/22 00:23:08;;;;;;;16.75;13.85;;;;;;;19.56;87.29;95415.84;5047846;28;20233;-62
2023/06/22 00:25:35;;;;;;;20.67;14.90;;;;;;;19.63;87.15;95419.72;5045772;28;20211;-61
2023/06/22 00:28:02;;;;;;;16.17;14.48;;;;;;;19.60;87.43;95412.16;5046611;28;20219;-62
2023/06/22 00:30:32;;;;;;;16.65;14.23;;;;;;;19.55;87.89;95409.88;5045708;28;20261;-63
2023/06/22 00:32:59;;;;;;;15.02;13.73;;;;;;;19.54;88.22;95408.25;5047853;28;20219;-62
2023/06/22 00:35:28;;;;;;;19.48;15.38;;;;;;;19.59;87.68;95419.06;5046839;28;20268;-63
2023/06/22 00:38:00;;;;;;;16.85;14.70;;;;;;;19.61;87.53;95416.41;5044068;28;20211;-63
2023/06/22 00:40:27;;;;;;;16.83;15.32;;;;;;;19.49;88.14;95412.00;5042473;28;20590;-63
2023/06/22 00:42:54;;;;;;;18.20;15.23;;;;;;;19.44;88.11;95407.13;5045292;28;20226;-62
2023/06/22 00:45:21;;;;;;;20.15;14.70;;;;;;;19.38;88.33;95417.81;5046391;28;20207;-62
2023/06/22 00:47:49;;;;;;;16.92;15.32;;;;;;;19.47;87.89;95417.25;5046614;28;20697;-63
2023/06/22 00:50:21;;;;;;;17.33;15.20;;;;;;;19.45;87.79;95408.78;5044848;28;20318;-63
2023/06/22 00:52:51;;;;;;;20.70;15.18;;;;;;;19.51;87.43;95416.16;5046953;28;20616;-62
2023/06/22 00:55:19;;;;;;;17.83;15.38;;;;;;;19.62;86.65;95416.31;5047246;28;20282;-61
2023/06/22 00:57:46;;;;;;;21.40;15.63;;;;;;;19.54;86.41;95421.13;5045183;28;20199;-63
2023/06/22 01:00:17;;;;;;;17.75;14.77;;;;;;;19.56;86.68;95431.31;5046815;28;20200;-63
2023/06/22 01:02:45;;;;;;;17.17;15.02;;;;;;;19.56;86.50;95427.00;5046259;28;20227;-62
2023/06/22 01:05:14;;;;;;;19.17;15.20;;;;;;;19.50;86.56;95437.72;5043897;28;20214;-63
2023/06/22 01:07:46;;;;;;;17.13;15.38;;;;;;;19.47;86.75;95427.56;5046559;28;20207;-62
2023/06/22 01:10:20;;;;;;;17.55;15.02;;;;;;;19.38;86.93;95423.81;5044161;28;20191;-61
2023/06/22 01:12:51;;;;;;;18.90;15.45;;;;;;;19.47;86.82;95426.72;5042751;28;20195;-62
2023/06/22 01:15:26;;;;;;;14.85;13.50;;;;;;;19.38;87.51;95430.69;5046409;28;20252;-63
2023/06/22 01:17:54;;;;;;;18.10;14.15;;;;;;;19.36;87.21;95423.06;5046002;28;20206;-61
2023/06/22 01:20:23;;;;;;;16.42;14.77;;;;;;;19.29;87.44;95419.22;5045797;28;20211;-63
2023/06/22 01:23:06;;;;;;;17.55;14.43;;;;;;;19.27;86.96;95420.25;5046231;28;20782;-62
2023/06/22 01:25:42;;;;;;;16.92;14.90;;;;;;;19.29;87.35;95423.56;5046126;28;20253;-61
2023/06/22 01:28:26;;;;;;;16.17;14.57;;;;;;;19.32;86.81;95428.50;5044338;28;20195;-62
2023/06/22 01:31:04;;;;;;;15.30;13.90;;;;;;;19.28;87.24;95434.78;5044108;28;20262;-61
2023/06/22 01:33:35;;;;;;;15.50;13.25;;;;;;;19.18;87.77;95444.81;5044576;28;20670;-60
2023/06/22 01:36:02;;;;;;;15.60;13.50;;;;;;;19.13;88.47;95448.59;5044686;28;20214;-62
2023/06/22 01:38:30;;;;;;;17.88;15.18;;;;;;;19.18;87.93;95442.25;5044901;28;20207;-62
2023/06/22 01:40:58;;;;;;;15.25;13.80;;;;;;;19.13;87.88;95443.44;5042022;28;20746;-62
2023/06/22 01:43:27;;;;;;;15.90;13.48;;;;;;;19.16;88.41;95453.56;5045187;28;20203;-62
2023/06/22 01:45:56;;;;;;;15.52;14.07;;;;;;;19.18;88.22;95444.00;5046104;28;20219;-62
2023/06/22 01:48:25;;;;;;;14.98;13.38;;;;;;;19.08;88.69;95435.16;5046257;28;20203;-61
2023/06/22 01:50:52;;;;;;;14.30;12.90;;;;;;;19.05;88.37;95445.69;5045969;28;20214;-62
2023/06/22 01:53:19;;;;;;;17.15;12.77;;;;;;;19.03;89.10;95444.03;5046933;28;20254;-62
2023/06/22 01:55:46;;;;;;;17.58;13.73;;;;;;;18.94;89.39;95444.56;5045458;28;20299;-61
2023/06/22 01:58:13;;;;;;;16.98;13.35;;;;;;;18.91;89.73;95452.47;5046046;28;20237;-62
2023/06/22 02:00:45;;;;;;;14.00;12.65;;;;;;;18.90;89.56;95453.38;5045863;28;20349;-63
2023/06/22 02:03:18;;;;;;;13.02;11.93;;;;;;;18.97;89.27;95459.84;5046020;28;20226;-62
2023/06/22 02:05:51;;;;;;;15.75;11.55;;;;;;;19.04;88.57;95468.03;5046208;28;20203;-62
2023/06/22 02:08:23;;;;;;;12.77;11.52;;;;;;;19.04;88.09;95468.03;5045910;28;20223;-62
2023/06/22 02:10:51;;;;;;;12.32;11.25;;;;;;;19.06;87.58;95468.75;5045130;28;20234;-63
2023/06/22 02:13:18;;;;;;;10.90;9.82;;;;;;;19.13;86.90;95469.19;5045708;28;20210;-62
2023/06/22 02:15:47;;;;;;;12.55;11.35;;;;;;;19.15;86.74;95464.78;5046153;28;20230;-62
2023/06/22 02:18:15;;;;;;;12.48;10.38;;;;;;;19.15;86.08;95462.22;5045324;28;20676;-62
2023/06/22 02:20:42;;;;;;;11.43;10.43;;;;;;;19.02;86.62;95457.00;5046400;28;20203;-61
2023/06/22 02:23:08;;;;;;;11.98;10.55;;;;;;;18.91;87.24;95460.19;5049111;28;20700;-62
2023/06/22 02:25:36;;;;;;;13.18;11.95;;;;;;;18.80;87.79;95457.47;5048561;28;20207;-62
2023/06/22 02:28:03;;;;;;;11.18;10.07;;;;;;;18.82;87.71;95450.44;5049693;28;20226;-62
2023/06/22 02:30:30;;;;;;;12.13;10.35;;;;;;;18.77;87.91;95447.34;5049723;28;20308;-62
2023/06/22 02:32:59;;;;;;;12.32;11.10;;;;;;;18.76;87.90;95440.53;5048982;28;20574;-62
2023/06/22 02:35:31;;;;;;;11.90;10.85;;;;;;;18.67;88.21;95446.22;5049402;28;20203;-62
2023/06/22 02:37:59;;;;;;;13.38;11.63;;;;;;;18.61;88.70;95446.56;5048372;28;20225;-63
2023/06/22 02:40:26;;;;;;;12.20;11.02;;;;;;;18.62;88.73;95453.38;5048375;28;20610;-62
2023/06/22 02:42:52;;;;;;;11.75;10.65;;;;;;;18.71;88.82;95446.84;5047041;28;20261;-61
2023/06/22 02:45:19;;;;;;;12.27;11.30;;;;;;;18.65;88.64;95442.91;5049656;28;20262;-62
2023/06/22 02:47:47;;;;;;;12.80;11.60;;;;;;;18.65;88.48;95453.19;5049211;28;20210;-62
2023/06/22 02:50:14;;;;;;;11.88;10.77;;;;;;;18.64;88.13;95452.38;5049255;28;20661;-62
2023/06/22 02:52:42;;;;;;;11.88;10.70;;;;;;;18.60;88.46;95450.88;5047808;28;20713;-61
2023/06/22 02:55:09;;;;;;;14.80;10.63;;;;;;;18.64;88.32;95452.38;5049209;28;20203;-63
2023/06/22 02:57:36;;;;;;;12.02;10.63;;;;;;;18.76;87.49;95455.16;5049679;28;20226;-61
2023/06/22 03:00:16;;;;;;;12.93;10.85;;;;;;;18.74;87.22;95457.81;5049026;28;20292;-63
2023/06/22 03:02:43;;;;;;;11.35;10.35;;;;;;;18.79;87.10;95454.97;5049313;28;20308;-62
2023/06/22 03:05:13;;;;;;;12.38;11.10;;;;;;;18.82;86.79;95452.19;5048477;28;20257;-62
2023/06/22 03:07:40;;;;;;;12.20;10.93;;;;;;;18.88;86.88;95455.22;5050009;28;20290;-62
2023/06/22 03:10:09;;;;;;;14.48;11.60;;;;;;;18.95;86.60;95466.00;5047416;28;20694;-61
2023/06/22 03:12:36;;;;;;;11.25;10.13;;;;;;;19.00;86.17;95462.22;5049196;28;20203;-63
2023/06/22 03:15:03;;;;;;;11.80;10.65;;;;;;;19.15;85.94;95478.50;5048715;28;20229;-62
2023/06/22 03:17:29;;;;;;;10.85;9.68;;;;;;;19.22;84.88;95474.63;5049463;28;20238;-62
2023/06/22 03:19:56;;;;;;;10.38;9.60;;;;;;;19.22;84.41;95484.13;5049352;28;20211;-63
2023/06/22 03:22:23;;;;;;;15.60;9.88;;;;;;;19.27;83.74;95488.06;5049133;28;20235;-62
2023/06/22 03:24:49;;;;;;;10.82;9.82;;;;;;;19.35;83.22;95490.16;5049068;28;20199;-63
2023/06/22 03:27:18;;;;;;;25.85;17.25;;;;;;;19.45;82.74;95483.53;5048599;28;20316;-63
2023/06/22 03:29:45;;;;;;;25.20;19.60;;;;;;;19.51;82.55;95483.19;5048366;28;20211;-62
2023/06/22 03:32:11;;;;;;;16.17;12.90;;;;;;;19.75;82.06;95483.41;5047918;28;20284;-62
2023/06/22 03:34:38;;;;;;;15.05;13.43;;;;;;;20.42;79.57;95484.28;5047159;28;20230;-63
2023/06/22 03:37:05;;;;;;;26.33;19.60;;;;;;;21.73;74.20;95496.84;5047905;28;20202;-62
2023/06/22 03:39:32;;;;;;;17.85;11.35;;;;;;;23.20;68.13;95496.44;5047056;28;20203;-61
2023/06/22 03:41:59;;;;;;;10.52;9.40;;;;;;;24.37;62.12;95501.00;5046250;28;20341;-62
2023/06/22 03:44:27;;;;;;;13.25;11.88;;;;;;;25.21;59.36;95490.63;5046994;28;20199;-61
2023/06/22 03:46:53;;;;;;;18.98;13.32;;;;;;;25.82;57.46;95495.78;5047889;28;20195;-62
2023/06/22 03:49:20;;;;;;;11.25;10.45;;;;;;;26.15;56.05;95498.03;5048671;28;20298;-62
2023/06/22 03:51:47;;;;;;;10.63;8.25;;;;;;;26.21;55.66;95512.31;5048142;28;20258;-62
2023/06/22 03:54:13;;;;;;;14.60;9.63;;;;;;;26.01;55.85;95514.03;5047490;28;20199;-61
2023/06/22 03:56:40;;;;;;;9.68;8.77;;;;;;;25.38;57.43;95509.03;5047835;28;20203;-61
2023/06/22 03:59:07;;;;;;;10.05;9.07;;;;;;;24.67;59.66;95504.63;5048236;28;20199;-63
2023/06/22 04:01:35;;;;;;;9.85;8.93;;;;;;;23.96;61.73;95511.25;5048017;28;20692;-62
2023/06/22 04:04:01;;;;;;;10.45;8.90;;;;;;;23.52;62.98;95517.28;5047574;28;20213;-62
2023/06/22 04:06:28;;;;;;;13.50;9.35;;;;;;;23.29;64.33;95516.47;5048368;28;20284;-61
2023/06/22 04:08:55;;;;;;;11.77;9.32;;;;;;;23.02;65.34;95515.03;5048031;28;20407;-63
2023/06/22 04:11:21;;;;;;;11.10;9.10;;;;;;;22.86;66.08;95493.78;5047551;28;20195;-62
2023/06/22 04:13:48;;;;;;;9.70;8.77;;;;;;;23.06;65.63;95487.94;5047197;28;20313;-62
2023/06/22 04:16:15;;;;;;;9.98;8.90;;;;;;;22.99;65.60;95479.00;5047681;28;20195;-61
2023/06/22 04:18:43;;;;;;;10.98;9.98;;;;;;;22.76;66.79;95485.06;5048032;28;20755;-63
2023/06/22 04:21:11;;;;;;;17.27;13.30;;;;;;;22.75;67.20;95488.56;5047438;28;20199;-62
2023/06/22 04:23:37;;;;;;;11.55;9.48;;;;;;;22.91;66.21;95464.94;5048358;28;20261;-62
2023/06/22 04:26:04;;;;;;;10.40;9.48;;;;;;;23.00;65.95;95475.47;5046917;28;20254;-62
2023/06/22 04:28:34;;;;;;;10.10;8.98;;;;;;;23.17;65.05;95479.34;5048593;28;20293;-62
2023/06/22 04:31:01;;;;;;;11.20;9.15;;;;;;;23.18;65.56;95477.56;5046966;28;20203;-63
2023/06/22 04:33:29;;;;;;;10.07;9.13;;;;;;;23.50;65.08;95478.50;5046715;28;20612;-62
2023/06/22 04:35:57;;;;;;;17.98;16.05;;;;;;;24.10;62.78;95485.00;5046521;28;20677;-63
2023/06/22 04:38:25;;;;;;;47.28;35.45;;;;;;;24.64;61.39;95489.28;5047814;28;20214;-63
2023/06/22 04:40:53;;;;;;;20.05;14.57;;;;;;;25.19;60.06;95479.50;5045955;28;20207;-63
2023/06/22 04:43:19;;;;;;;24.67;19.80;;;;;;;25.79;58.53;95485.63;5047383;28;20606;-62
2023/06/22 04:45:46;;;;;;;12.50;11.43;;;;;;;26.35;56.51;95491.91;5046333;28;20230;-62
2023/06/22 04:48:16;;;;;;;11.40;10.32;;;;;;;26.91;55.09;95491.16;5046624;28;20252;-63
2023/06/22 04:50:44;;;;;;;10.48;9.57;;;;;;;27.43;52.84;95495.03;5047309;28;20607;-62
2023/06/22 04:53:12;;;;;;;11.13;10.05;;;;;;;27.75;51.63;95486.78;5046662;28;20195;-62
2023/06/22 04:55:41;;;;;;;10.70;9.80;;;;;;;27.86;51.47;95496.22;5047645;28;20223;-62
2023/06/22 04:58:08;;;;;;;11.77;10.27;;;;;;;28.10;50.97;95500.88;5048016;28;20203;-63
2023/06/22 05:00:36;;;;;;;11.00;9.63;;;;;;;28.46;50.07;95495.69;5046488;28;20332;-61
2023/06/22 05:03:03;;;;;;;9.73;8.82;;;;;;;28.81;49.23;95493.06;5046443;28;20280;-63
2023/06/22 05:05:30;;;;;;;10.32;9.52;;;;;;;29.20;48.55;95495.28;5046749;28;20203;-62
2023/06/22 05:08:00;;;;;;;10.45;9.50;;;;;;;29.63;47.26;95476.06;5047590;28;20292;-63
2023/06/22 05:10:28;;;;;;;13.23;10.15;;;;;;;30.53;44.89;95490.19;5044774;28;20297;-62
2023/06/22 05:12:55;;;;;;;11.77;9.63;;;;;;;30.92;44.56;95488.59;5046692;28;20203;-63
2023/06/22 05:15:22;;;;;;;11.35;9.32;;;;;;;30.99;43.10;95486.09;5044699;28;20218;-63
2023/06/22 05:17:49;;;;;;;14.43;9.80;;;;;;;30.48;44.18;95492.47;5045967;28;21506;-63
2023/06/22 05:20:18;;;;;;;12.10;9.48;;;;;;;29.81;45.89;95496.91;5046939;28;20206;-63
2023/06/22 05:22:45;;;;;;;10.52;9.73;;;;;;;29.29;46.49;95494.34;5047247;28;20223;-62
2023/06/22 05:25:12;;;;;;;11.15;9.95;;;;;;;28.74;47.17;95499.84;5046977;28;20230;-62
2023/06/22 05:27:41;;;;;;;14.20;10.18;;;;;;;27.89;50.11;95497.72;5046198;28;20227;-63
2023/06/22 05:30:09;;;;;;;10.75;9.77;;;;;;;27.35;51.83;95500.13;5045781;28;20268;-63
2023/06/22 05:32:35;;;;;;;11.23;10.23;;;;;;;27.03;53.17;95505.72;5046247;28;20211;-63
2023/06/22 05:35:02;;;;;;;12.23;10.05;;;;;;;26.69;54.08;95499.31;5044504;28;20230;-62
2023/06/22 05:37:29;;;;;;;12.68;10.23;;;;;;;26.61;54.48;95509.59;5045419;28;20199;-61
2023/06/22 05:39:57;;;;;;;14.35;12.30;;;;;;;26.80;54.05;95512.16;5045424;28;20234;-62
2023/06/22 05:42:25;;;;;;;15.32;11.00;;;;;;;27.30;52.72;95517.16;5044717;28;20680;-61
2023/06/22 05:44:53;;;;;;;17.35;10.95;;;;;;;27.82;50.88;95510.53;5044663;28;20389;-62
2023/06/22 05:47:20;;;;;;;11.57;10.70;;;;;;;28.13;50.18;95516.25;5045252;28;20213;-62
2023/06/22 05:49:47;;;;;;;13.68;10.30;;;;;;;28.85;48.70;95512.72;5046308;28;20207;-63
2023/06/22 05:52:13;;;;;;;10.48;9.40;;;;;;;30.19;45.10;95519.19;5046234;28;20802;-63
2023/06/22 05:54:41;;;;;;;11.43;9.85;;;;;;;30.89;43.43;95516.97;5046646;28;20256;-62
2023/06/22 05:57:08;;;;;;;11.25;10.20;;;;;;;31.32;42.75;95523.66;5048388;28;20684;-63
2023/06/22 05:59:35;;;;;;;11.18;10.27;;;;;;;31.37;41.85;95521.34;5051129;28;20253;-62
2023/06/22 06:02:03;;;;;;;10.55;9.82;;;;;;;31.80;41.93;95512.19;5049556;28;20203;-63
2023/06/22 06:04:30;;;;;;;14.90;11.45;;;;;;;31.75;40.82;95512.72;5050533;28;20257;-62
2023/06/22 06:06:56;;;;;;;13.05;11.95;;;;;;;30.84;41.81;95511.38;5049161;28;20672;-62
2023/06/22 06:09:23;;;;;;;12.25;11.07;;;;;;;30.56;43.93;95505.63;5050808;28;20207;-63
2023/06/22 06:11:50;;;;;;;10.98;10.05;;;;;;;31.23;42.75;95508.91;5049266;28;20606;-64
2023/06/22 06:14:17;;;;;;;11.32;10.32;;;;;;;32.28;40.62;95505.91;5050471;28;20229;-63
2023/06/22 06:16:44;;;;;;;19.30;11.68;;;;;;;33.43;37.82;95504.81;5050216;28;20202;-63
2023/06/22 06:19:12;;;;;;;22.98;12.35;;;;;;;35.96;33.14;95509.69;5050556;28;20226;-62
2023/06/22 06:21:38;;;;;;;11.10;9.48;;;;;;;38.41;30.11;95498.78;5049477;28;20199;-63
2023/06/22 06:24:06;;;;;;;11.40;10.10;;;;;;;40.98;26.65;95479.28;5050296;28;20223;-64
2023/06/22 06:26:32;;;;;;;12.18;11.07;;;;;;;43.49;23.46;95490.03;5048788;28;20231;-64
2023/06/22 06:29:02;;;;;;;11.00;9.70;;;;;;;45.50;21.17;95486.25;5050081;28;20203;-63
2023/06/22 06:31:28;;;;;;;11.45;10.48;;;;;;;47.17;19.17;95493.19;5047868;28;20257;-64
2023/06/22 06:33:55;;;;;;;11.60;10.65;;;;;;;47.58;19.25;95492.06;5050225;28;20721;-64
2023/06/22 06:36:24;;;;;;;11.45;10.35;;;;;;;47.21;18.98;95480.81;5049657;28;20260;-65
2023/06/22 06:38:50;;;;;;;11.95;9.93;;;;;;;47.50;18.92;95479.19;5048829;28;20737;-64
2023/06/22 06:41:17;;;;;;;10.10;9.43;;;;;;;48.42;18.33;95474.22;5049682;28;20631;-64
2023/06/22 06:43:44;;;;;;;11.55;10.23;;;;;;;48.13;18.08;95468.69;5049688;28;20227;-64
2023/06/22 06:46:11;;;;;;;12.73;11.13;;;;;;;45.54;19.44;95478.47;5049712;28;20207;-64
2023/06/22 06:48:37;;;;;;;10.18;9.35;;;;;;;43.59;22.13;95467.94;5049621;28;20932;-64
2023/06/22 06:51:04;;;;;;;10.05;9.40;;;;;;;42.38;23.57;95463.06;5049119;28;20254;-64
2023/06/22 06:53:32;;;;;;;10.82;10.02;;;;;;;42.07;24.07;95460.91;5049170;28;20202;-64
2023/06/22 06:55:59;;;;;;;12.02;9.40;;;;;;;43.58;22.54;95460.97;5049790;28;20203;-64
2023/06/22 06:58:25;;;;;;;9.60;8.85;;;;;;;45.47;20.69;95457.22;5049484;28;20241;-64
2023/06/22 07:00:52;;;;;;;11.85;9.75;;;;;;;46.40;20.34;95463.53;5049902;28;20203;-65
2023/06/22 07:03:19;;;;;;;10.38;9.40;;;;;;;47.00;19.37;95464.66;5059866;28;20215;-63
2023/06/22 07:05:45;;;;;;;10.82;10.07;;;;;;;47.79;18.68;95467.78;5061565;28;20202;-65
2023/06/22 07:08:12;;;;;;;10.82;9.07;;;;;;;49.48;17.69;95460.97;5060597;28;20649;-63
2023/06/22 07:10:40;;;;;;;8.88;8.05;;;;;;;50.19;17.26;95458.22;5053753;28;20538;-64
2023/06/22 07:13:07;;;;;;;14.50;10.20;;;;;;;50.16;16.48;95461.50;5047962;28;20642;-64
2023/06/22 07:15:33;;;;;;;11.45;9.77;;;;;;;49.98;16.84;95457.72;5046469;28;20234;-63
2023/06/22 07:18:00;;;;;;;16.23;13.20;;;;;;;50.38;16.52;95459.06;5048767;28;20234;-65
2023/06/22 07:20:27;;;;;;;11.25;10.25;;;;;;;50.70;16.23;95462.94;5048219;28;20202;-64
2023/06/22 07:22:54;;;;;;;10.15;9.45;;;;;;;50.98;15.99;95453.03;5046809;28;20210;-64
2023/06/22 07:25:20;;;;;;;10.68;9.75;;;;;;;51.71;15.29;95459.56;5047417;28;20692;-64
2023/06/22 07:27:59;;;;;;;8.73;8.23;;;;;;;51.16;15.73;95462.19;5052848;28;20257;-63
2023/06/22 07:30:26;;;;;;;9.52;8.93;;;;;;;51.60;15.89;95459.75;5064444;28;20228;-65
2023/06/22 07:32:53;;;;;;;10.15;9.45;;;;;;;51.86;15.40;95457.34;5064162;28;20218;-63
2023/06/22 07:35:20;;;;;;;12.15;11.05;;;;;;;51.75;15.58;95457.84;5063725;28;20199;-64
2023/06/22 07:37:46;;;;;;;9.75;8.85;;;;;;;52.84;14.92;95462.25;5047772;28;20485;-63
2023/06/22 07:40:14;;;;;;;11.98;9.32;;;;;;;52.27;15.26;95462.72;5046899;28;20264;-64
2023/06/22 07:42:40;;;;;;;15.10;10.95;;;;;;;51.91;15.46;95465.38;5047132;28;20222;-64
2023/06/22 07:45:10;;;;;;;12.65;11.65;;;;;;;50.83;15.85;95466.78;5046884;28;20254;-64
2023/06/22 07:47:36;;;;;;;13.23;11.90;;;;;;;50.26;16.41;95458.69;5048484;28;20253;-65
2023/06/22 07:50:04;;;;;;;10.45;9.63;;;;;;;48.44;17.82;95460.47;5048831;28;20233;-65
2023/06/22 07:52:31;;;;;;;10.98;10.05;;;;;;;45.79;20.09;95459.78;5048042;28;20265;-66
2023/06/22 07:54:58;;;;;;;12.88;11.55;;;;;;;43.53;22.16;95464.41;5047865;28;20191;-64
2023/06/22 07:57:31;;;;;;;12.45;10.50;;;;;;;42.33;23.65;95457.63;5047459;28;20293;-64
2023/06/22 07:59:58;;;;;;;12.55;10.25;;;;;;;40.48;25.47;95459.34;5047984;28;20638;-63
2023/06/22 08:02:26;;;;;;;11.50;10.68;;;;;;;38.98;28.27;95451.81;5048586;28;20693;-64
2023/06/22 08:04:53;;;;;;;10.52;9.52;;;;;;;38.75;29.09;95451.59;5046933;28;20250;-65
2023/06/22 08:07:20;;;;;;;10.82;9.73;;;;;;;40.95;26.62;95447.75;5048779;28;20289;-65
2023/06/22 08:09:49;;;;;;;11.20;10.27;;;;;;;44.40;22.11;95440.28;5048215;28;20296;-65
2023/06/22 08:12:17;;;;;;;10.02;9.43;;;;;;;45.59;21.36;95439.03;5047930;28;20282;-63
2023/06/22 08:14:44;;;;;;;9.60;9.00;;;;;;;44.67;21.50;95436.75;5046551;28;20199;-63
2023/06/22 08:17:11;;;;;;;10.18;9.38;;;;;;;43.70;22.56;95433.06;5046451;28;20214;-64
2023/06/22 08:19:40;;;;;;;10.35;9.30;;;;;;;44.97;21.47;95436.22;5047245;28;20206;-63
2023/06/22 08:22:07;;;;;;;9.18;8.13;;;;;;;46.31;20.74;95440.13;5048018;28;20291;-63
2023/06/22 08:24:33;;;;;;;8.70;8.13;;;;;;;48.02;19.28;95429.41;5048535;28;20250;-64
2023/06/22 08:27:00;;;;;;;9.10;8.45;;;;;;;48.80;18.22;95429.44;5047687;28;20258;-65
2023/06/22 08:29:27;;;;;;;9.45;8.55;;;;;;;49.09;17.64;95425.97;5046848;28;20286;-65
2023/06/22 08:31:56;;;;;;;9.02;8.48;;;;;;;50.03;17.01;95427.06;5047573;28;20233;-64
2023/06/22 08:34:24;;;;;;;9.25;8.60;;;;;;;49.51;17.66;95426.06;5046920;28;20222;-64
2023/06/22 08:36:52;;;;;;;9.82;9.13;;;;;;;48.25;18.41;95428.78;5047871;28;20214;-64
2023/06/22 08:39:19;;;;;;;9.38;8.63;;;;;;;47.21;19.49;95429.69;5046218;28;20199;-65
2023/06/22 08:41:46;;;;;;;10.23;9.40;;;;;;;45.31;21.61;95431.34;5047718;28;20287;-65
2023/06/22 08:44:13;;;;;;;8.85;8.43;;;;;;;44.04;22.43;95438.31;5047301;28;20233;-64
2023/06/22 08:46:40;;;;;;;10.00;9.38;;;;;;;42.47;24.00;95434.13;5045976;28;20264;-62
2023/06/22 08:49:08;;;;;;;10.05;9.15;;;;;;;42.13;24.96;95427.88;5045437;28;20217;-63
2023/06/22 08:51:34;;;;;;;9.45;8.88;;;;;;;42.26;24.57;95427.59;5048025;28;20296;-64
2023/06/22 08:54:02;;;;;;;9.13;8.52;;;;;;;44.61;21.95;95417.16;5047298;28;20203;-63
2023/06/22 08:56:29;;;;;;;10.35;9.05;;;;;;;46.25;20.33;95414.31;5047751;28;20302;-64
2023/06/22 08:58:56;;;;;;;7.95;7.43;;;;;;;47.56;19.42;95410.72;5048905;28;20230;-63
2023/06/22 09:01:23;;;;;;;8.32;7.63;;;;;;;47.99;18.12;95405.72;5046768;28;20229;-63
2023/06/22 09:03:54;;;;;;;8.77;8.10;;;;;;;48.08;18.35;95412.13;5046129;28;20310;-63
2023/06/22 09:06:20;;;;;;;7.43;6.78;;;;;;;49.53;17.05;95410.38;5046221;28;20225;-64
2023/06/22 09:08:47;;;;;;;6.25;5.95;;;;;;;49.43;16.44;95410.50;5047526;28;20222;-62
2023/06/22 09:11:15;;;;;;;7.07;6.72;;;;;;;48.53;16.98;95412.94;5044698;28;20214;-62
2023/06/22 09:13:42;;;;;;;9.13;8.25;;;;;;;47.84;18.32;95411.19;5046060;28;20285;-64
2023/06/22 09:16:09;;;;;;;8.88;8.07;;;;;;;47.04;18.93;95414.63;5045611;28;20726;-63
2023/06/22 09:18:36;;;;;;;8.63;8.10;;;;;;;47.29;19.03;95402.19;5045575;28;20208;-63
2023/06/22 09:21:03;;;;;;;7.30;6.90;;;;;;;47.43;18.67;95408.63;5045586;28;20677;-63
2023/06/22 09:23:29;;;;;;;8.63;8.13;;;;;;;46.79;18.95;95409.25;5044740;28;20207;-63
2023/06/22 09:25:56;;;;;;;23.90;21.92;;;;;;;45.42;20.43;95409.69;5044244;28;20225;-63
2023/06/22 09:28:24;;;;;;;99.57;87.57;;;;;;;44.35;21.72;95410.72;5044260;28;20195;-63
2023/06/22 09:30:51;;;;;;;30.15;27.35;;;;;;;44.34;21.83;95411.78;5041749;28;20202;-63
2023/06/22 09:33:19;;;;;;;12.35;11.38;;;;;;;44.15;21.85;95417.78;5041363;28;20284;-64
2023/06/22 09:35:46;;;;;;;9.30;8.70;;;;;;;43.17;22.62;95416.78;5045869;28;20364;-63
2023/06/22 09:38:12;;;;;;;37.88;33.70;;;;;;;42.23;23.61;95414.72;5042776;28;20247;-63
2023/06/22 09:40:39;;;;;;;25.35;22.55;;;;;;;41.18;25.61;95417.63;5045349;28;20799;-63
2023/06/22 09:43:06;;;;;;;20.63;18.85;;;;;;;40.60;26.09;95413.03;5045955;28;20197;-64
2023/06/22 09:45:34;;;;;;;19.30;17.70;;;;;;;39.44;27.38;95405.34;5046539;28;20250;-62
2023/06/22 09:48:01;;;;;;;16.00;14.43;;;;;;;38.98;28.17;95414.59;5046063;28;20789;-62
2023/06/22 09:50:28;;;;;;;11.82;10.75;;;;;;;37.43;29.98;95404.50;5046233;28;21557;-63
2023/06/22 09:52:55;;;;;;;12.63;11.68;;;;;;;36.30;31.66;95395.81;5046424;28;20207;-63
2023/06/22 09:55:22;;;;;;;12.38;11.38;;;;;;;35.27;33.57;95401.31;5046034;28;20202;-62
2023/06/22 09:57:48;;;;;;;11.13;10.27;;;;;;;34.51;35.17;95398.56;5046619;28;20264;-64
2023/06/22 10:00:18;;;;;;;10.75;10.00;;;;;;;33.69;37.35;95408.63;5046026;28;20245;-63
2023/06/22 10:02:47;;;;;;;10.07;9.38;;;;;;;33.43;37.99;95393.31;5046570;28;20203;-63
2023/06/22 10:05:14;;;;;;;9.77;8.85;;;;;;;33.55;37.66;95389.22;5045865;28;20223;-63
2023/06/22 10:07:43;;;;;;;10.85;9.13;;;;;;;33.03;37.97;95391.97;5046292;28;20218;-62
2023/06/22 10:10:10;;;;;;;10.23;9.52;;;;;;;32.50;40.08;95396.41;5046251;28;20293;-63
2023/06/22 10:12:37;;;;;;;10.63;9.73;;;;;;;32.18;40.77;95394.00;5046449;28;20211;-63
2023/06/22 10:15:04;;;;;;;10.70;9.30;;;;;;;32.15;40.82;95394.38;5045706;28;20711;-63
2023/06/22 10:17:31;;;;;;;10.77;9.80;;;;;;;31.97;41.57;95381.50;5046120;28;20333;-62
2023/06/22 10:19:59;;;;;;;10.55;9.75;;;;;;;31.89;41.95;95384.19;5045724;28;20261;-62
2023/06/22 10:22:25;;;;;;;9.10;8.38;;;;;;;31.73;41.86;95390.34;5046173;28;20207;-62
2023/06/22 10:24:52;;;;;;;9.15;8.40;;;;;;;31.76;40.65;95384.75;5045676;28;20292;-63
2023/06/22 10:27:19;;;;;;;9.52;8.77;;;;;;;31.86;41.46;95389.81;5044925;28;20337;-63
2023/06/22 10:29:45;;;;;;;11.13;10.00;;;;;;;31.73;41.76;95383.28;5045398;28;20224;-62
2023/06/22 10:32:12;;;;;;;9.75;8.95;;;;;;;31.66;41.72;95373.63;5046012;28;20699;-63
2023/06/22 10:34:39;;;;;;;10.00;8.68;;;;;;;31.74;41.27;95371.78;5046055;28;20264;-63
2023/06/22 10:37:07;;;;;;;10.38;9.30;;;;;;;31.55;41.54;95380.09;5045941;28;20204;-63
2023/06/22 10:39:33;;;;;;;10.80;9.90;;;;;;;31.30;41.93;95373.31;5045755;28;20261;-62
2023/06/22 10:42:00;;;;;;;10.32;9.52;;;;;;;31.06;42.32;95377.66;5046827;28;20493;-61
2023/06/22 10:44:27;;;;;;;10.93;9.88;;;;;;;30.82;42.95;95377.72;5049205;28;20250;-63
2023/06/22 10:46:53;;;;;;;10.95;9.93;;;;;;;30.72;42.96;95371.81;5050527;28;20226;-63
2023/06/22 10:49:20;;;;;;;10.05;9.45;;;;;;;30.81;42.21;95362.13;5049174;28;20312;-63
2023/06/22 10:51:47;;;;;;;11.68;9.13;;;;;;;30.72;43.39;95369.19;5049504;28;20676;-61
2023/06/22 10:54:18;;;;;;;9.23;8.60;;;;;;;30.70;43.60;95363.28;5049237;28;20200;-62
2023/06/22 10:56:44;;;;;;;10.77;10.10;;;;;;;30.76;42.98;95367.88;5049917;28;20203;-64
2023/06/22 10:59:11;;;;;;;9.90;9.20;;;;;;;30.66;43.16;95364.66;5048696;28;20253;-62
2023/06/22 11:01:38;;;;;;;9.77;9.13;;;;;;;30.65;43.05;95358.56;5049422;28;20280;-62
2023/06/22 11:04:04;;;;;;;9.75;9.13;;;;;;;30.59;43.28;95359.25;5049059;28;20202;-62
2023/06/22 11:06:31;;;;;;;12.70;10.00;;;;;;;30.45;43.47;95360.69;5049100;28;20264;-64
2023/06/22 11:08:58;;;;;;;10.55;9.68;;;;;;;30.74;43.79;95356.72;5049390;28;20203;-63
2023/06/22 11:11:26;;;;;;;10.68;9.68;;;;;;;30.95;44.61;95364.88;5046191;28;20256;-63
2023/06/22 11:13:53;;;;;;;8.52;7.90;;;;;;;31.07;43.14;95362.72;5048984;28;20300;-63
2023/06/22 11:16:20;;;;;;;10.13;9.23;;;;;;;31.07;42.42;95345.16;5048494;28;20225;-61
2023/06/22 11:18:47;;;;;;;9.88;9.23;;;;;;;30.97;43.01;95347.16;5048714;28;20230;-60
2023/06/22 11:21:13;;;;;;;10.27;9.38;;;;;;;30.87;43.29;95346.53;5048842;28;20265;-63
2023/06/22 11:23:40;;;;;;;10.25;9.43;;;;;;;30.84;42.46;95341.63;5048104;28;20350;-64